createdAt,value
2024-03-26T00:02:17.437Z,3.00
2024-03-26T00:04:49.790Z,2.99
2024-03-26T00:07:24.603Z,2.98
2024-03-26T00:09:58.768Z,2.96
2024-03-26T00:12:32.909Z,2.95
2024-03-26T00:15:06.239Z,2.92
2024-03-26T00:17:40.190Z,2.90
2024-03-26T00:20:14.919Z,2.89
2024-03-26T00:22:47.156Z,2.88
2024-03-26T00:25:21.925Z,2.86
2024-03-26T00:28:05.692Z,2.83
2024-03-26T00:30:38.278Z,2.82
2024-03-26T00:33:11.306Z,2.82
2024-03-26T00:35:44.427Z,2.83
2024-03-26T00:38:17.882Z,2.83
2024-03-26T00:40:50.352Z,2.80
2024-03-26T00:43:28.429Z,2.79
2024-03-26T00:46:02.529Z,2.79
2024-03-26T00:48:36.272Z,2.77
2024-03-26T00:51:10.666Z,2.76
2024-03-26T00:53:43.981Z,2.75
2024-03-26T00:56:17.500Z,2.75
2024-03-26T00:58:52.920Z,2.73
2024-03-26T01:01:28.597Z,2.69
2024-03-26T01:04:02.516Z,2.67
2024-03-26T01:06:35.172Z,2.66
2024-03-26T01:09:09.187Z,2.65
2024-03-26T01:11:42.612Z,2.64
2024-03-26T01:14:18.126Z,2.64
2024-03-26T01:16:50.426Z,2.62
2024-03-26T01:19:25.615Z,2.60
2024-03-26T01:22:01.819Z,2.58
2024-03-26T01:24:37.516Z,2.57
2024-03-26T01:27:11.746Z,2.56
2024-03-26T01:29:45.688Z,2.56
2024-03-26T01:32:18.677Z,2.55
2024-03-26T01:34:55.298Z,2.56
2024-03-26T01:37:28.339Z,2.56
2024-03-26T01:40:00.929Z,2.55
2024-03-26T01:42:35.795Z,2.56
2024-03-26T01:45:11.690Z,2.57
2024-03-26T01:47:45.845Z,2.57
2024-03-26T01:50:20.010Z,2.58
2024-03-26T01:52:54.701Z,2.56
2024-03-26T01:55:29.473Z,2.54
2024-03-26T01:58:05.363Z,2.53
2024-03-26T02:00:39.675Z,2.52
2024-03-26T02:03:10.966Z,2.51
2024-03-26T02:05:42.946Z,2.51
2024-03-26T02:11:44.954Z,2.43
2024-03-26T02:14:19.152Z,2.42
2024-03-26T02:16:50.435Z,2.42
2024-03-26T02:19:36.740Z,2.40
2024-03-26T02:22:24.361Z,2.38
2024-03-26T02:24:57.361Z,2.37
2024-03-26T02:27:30.489Z,2.38
2024-03-26T02:30:03.976Z,2.37
2024-03-26T02:32:37.185Z,2.37
2024-03-26T02:35:16.980Z,2.35
2024-03-26T02:37:51.441Z,2.33
2024-03-26T02:40:25.662Z,2.31
2024-03-26T02:42:59.749Z,2.30
2024-03-26T02:45:35.535Z,2.28
2024-03-26T02:48:10.307Z,2.26
2024-03-26T02:50:43.271Z,2.22
2024-03-26T02:53:16.617Z,2.20
2024-03-26T02:55:49.927Z,2.17
2024-03-26T02:58:22.895Z,2.14
2024-03-26T03:01:06.250Z,2.11
2024-03-26T03:03:41.470Z,2.08
2024-03-26T03:06:15.514Z,2.06
2024-03-26T03:08:48.981Z,2.05
2024-03-26T03:11:23.898Z,2.02
2024-03-26T03:13:57.485Z,1.99
2024-03-26T03:16:30.582Z,1.96
2024-03-26T03:19:03.828Z,1.93
2024-03-26T03:21:37.466Z,1.92
2024-03-26T03:24:11.098Z,1.91
2024-03-26T03:26:45.459Z,1.91
2024-03-26T03:29:18.550Z,1.91
2024-03-26T03:31:52.446Z,1.90
2024-03-26T03:34:25.548Z,1.90
2024-03-26T03:36:58.689Z,1.90
2024-03-26T03:39:34.976Z,1.88
2024-03-26T03:42:09.077Z,1.87
2024-03-26T03:44:42.680Z,1.85
2024-03-26T03:47:16.914Z,1.85
2024-03-26T03:49:51.039Z,1.85
2024-03-26T03:52:25.162Z,1.84
2024-03-26T03:54:57.966Z,1.84
2024-03-26T03:57:34.165Z,1.85
2024-03-26T04:00:12.082Z,1.84
2024-03-26T04:02:47.051Z,1.83
2024-03-26T04:05:20.957Z,1.81
2024-03-26T04:07:54.659Z,1.80
2024-03-26T04:10:30.424Z,1.80
2024-03-26T04:13:03.516Z,1.79
2024-03-26T04:15:42.543Z,1.78
2024-03-26T04:18:16.037Z,1.75
2024-03-26T04:20:50.472Z,1.74
2024-03-26T04:23:44.778Z,1.69
2024-03-26T04:26:18.541Z,1.67
2024-03-26T04:28:54.107Z,1.66
2024-03-26T04:31:26.471Z,1.65
2024-03-26T04:34:00.206Z,1.66
2024-03-26T04:36:36.421Z,1.68
2024-03-26T04:39:12.490Z,1.67
2024-03-26T04:41:47.067Z,1.64
2024-03-26T04:44:18.860Z,1.63
2024-03-26T04:46:52.338Z,1.64
2024-03-26T04:49:26.628Z,1.65
2024-03-26T04:51:59.723Z,1.64
2024-03-26T04:54:36.419Z,1.63
2024-03-26T04:57:09.042Z,1.61
2024-03-26T04:59:42.978Z,1.61
2024-03-26T05:02:15.958Z,1.63
2024-03-26T05:04:49.884Z,1.66
2024-03-26T05:07:23.334Z,1.67
2024-03-26T05:09:56.023Z,1.69
2024-03-26T05:12:32.217Z,1.70
2024-03-26T05:15:08.565Z,1.71
2024-03-26T05:17:41.301Z,1.73
2024-03-26T05:20:15.773Z,1.74
2024-03-26T05:22:48.241Z,1.77
2024-03-26T05:25:22.004Z,1.80
2024-03-26T05:27:56.223Z,1.80
2024-03-26T05:30:29.623Z,1.82
2024-03-26T05:33:02.167Z,1.84
2024-03-26T05:35:36.836Z,1.87
2024-03-26T05:38:11.389Z,1.89
2024-03-26T05:40:48.123Z,1.89
2024-03-26T05:43:22.884Z,1.91
2024-03-26T05:45:56.230Z,1.91
2024-03-26T05:48:30.322Z,1.93
2024-03-26T05:51:02.736Z,1.94
2024-03-26T05:53:36.794Z,1.97
2024-03-26T05:56:10.116Z,1.99
2024-03-26T05:58:44.047Z,2.02
2024-03-26T06:01:16.331Z,2.06
2024-03-26T06:03:51.614Z,2.10
2024-03-26T06:06:25.351Z,2.12
2024-03-26T06:08:58.382Z,2.14
2024-03-26T06:11:33.015Z,2.17
2024-03-26T06:14:06.403Z,2.19
2024-03-26T06:16:40.396Z,2.23
2024-03-26T06:19:14.157Z,2.25
2024-03-26T06:21:47.527Z,2.28
2024-03-26T06:24:22.106Z,2.30
2024-03-26T06:26:56.248Z,2.31
2024-03-26T06:29:29.936Z,2.33
2024-03-26T06:32:05.201Z,2.37
2024-03-26T06:34:40.230Z,2.41
2024-03-26T06:37:14.531Z,2.45
2024-03-26T06:39:49.026Z,2.48
2024-03-26T06:42:24.854Z,2.46
2024-03-26T06:44:59.787Z,2.48
2024-03-26T06:47:32.451Z,2.53
2024-03-26T06:50:05.819Z,2.53
2024-03-26T06:52:39.143Z,2.57
2024-03-26T06:55:18.216Z,2.64
2024-03-26T06:57:52.255Z,2.66
2024-03-26T07:00:29.008Z,2.65
2024-03-26T07:03:05.671Z,2.65
2024-03-26T07:05:46.794Z,2.71
2024-03-26T07:08:25.316Z,2.80
2024-03-26T07:10:58.604Z,2.86
2024-03-26T07:13:32.218Z,2.95
2024-03-26T07:16:05.563Z,3.03
2024-03-26T07:18:39.222Z,3.09
2024-03-26T07:21:11.655Z,3.17
2024-03-26T07:23:48.839Z,3.22
2024-03-26T07:26:23.704Z,3.25
2024-03-26T07:28:57.591Z,3.29
2024-03-26T07:31:43.998Z,3.29
2024-03-26T07:34:29.778Z,3.35
2024-03-26T07:37:02.229Z,3.41
2024-03-26T07:39:38.684Z,3.42
2024-03-26T07:42:12.200Z,3.45
2024-03-26T07:44:45.662Z,3.44
2024-03-26T07:47:20.779Z,3.37
2024-03-26T07:49:54.583Z,3.39
2024-03-26T07:52:29.652Z,3.52
2024-03-26T07:55:04.090Z,3.62
2024-03-26T07:57:40.884Z,3.69
2024-03-26T08:00:18.447Z,3.72
2024-03-26T08:02:54.903Z,3.77
2024-03-26T08:05:30.825Z,3.82
2024-03-26T08:08:05.677Z,3.89
2024-03-26T08:10:45.165Z,3.98
2024-03-26T08:13:23.467Z,4.11
2024-03-26T08:15:56.846Z,4.22
2024-03-26T08:18:34.953Z,4.33
2024-03-26T08:21:09.727Z,4.33
2024-03-26T08:23:42.653Z,4.39
2024-03-26T08:26:15.790Z,4.49
2024-03-26T08:28:48.453Z,4.60
2024-03-26T08:31:23.591Z,4.72
2024-03-26T08:33:57.042Z,4.82
2024-03-26T08:36:30.979Z,4.93
2024-03-26T08:39:11.529Z,5.02
2024-03-26T08:41:45.883Z,5.09
2024-03-26T08:44:20.354Z,5.14
2024-03-26T08:46:59.986Z,5.21
2024-03-26T08:49:34.616Z,5.29
2024-03-26T08:52:14.539Z,5.38
2024-03-26T08:54:48.987Z,5.42
2024-03-26T08:57:31.439Z,5.50
2024-03-26T09:00:12.026Z,5.62
2024-03-26T09:02:45.608Z,5.75
2024-03-26T09:05:18.919Z,5.83
2024-03-26T09:07:51.943Z,5.90
2024-03-26T09:10:25.879Z,6.00
2024-03-26T09:13:00.494Z,5.99
2024-03-26T09:15:37.567Z,5.99
2024-03-26T09:18:11.279Z,6.07
2024-03-26T09:20:45.887Z,6.12
2024-03-26T09:23:22.786Z,6.21
2024-03-26T09:26:02.558Z,6.30
2024-03-26T09:28:51.837Z,6.38
2024-03-26T09:31:27.972Z,6.43
2024-03-26T09:34:04.559Z,6.51
2024-03-26T09:36:41.317Z,6.60
2024-03-26T09:39:15.533Z,6.70
2024-03-26T09:41:54.045Z,6.82
2024-03-26T09:44:29.937Z,6.88
2024-03-26T09:47:09.054Z,6.95
2024-03-26T09:49:43.417Z,7.02
2024-03-26T09:52:20.264Z,7.11
2024-03-26T09:54:58.935Z,7.18
2024-03-26T09:57:33.203Z,7.30
2024-03-26T10:00:05.687Z,7.41
2024-03-26T10:02:40.843Z,7.49
2024-03-26T10:05:18.058Z,7.55
2024-03-26T10:07:51.567Z,7.57
2024-03-26T10:10:26.689Z,7.60
2024-03-26T10:13:11.767Z,7.66
2024-03-26T10:15:47.637Z,7.68
2024-03-26T10:18:36.321Z,7.69
2024-03-26T10:21:16.744Z,7.76
2024-03-26T10:23:50.160Z,7.84
2024-03-26T10:26:26.454Z,7.90
2024-03-26T10:29:00.731Z,7.93
2024-03-26T10:31:36.626Z,8.01
2024-03-26T10:34:11.103Z,8.10
2024-03-26T10:36:46.212Z,8.14
2024-03-26T10:39:21.417Z,8.15
2024-03-26T10:41:57.603Z,8.11
2024-03-26T10:44:32.492Z,8.10
2024-03-26T10:47:11.635Z,8.12
2024-03-26T10:49:45.374Z,8.12
2024-03-26T10:52:20.903Z,8.11
2024-03-26T10:55:01.433Z,8.07
2024-03-26T10:57:36.173Z,8.04
2024-03-26T11:00:15.417Z,8.04
2024-03-26T11:02:54.985Z,8.09
2024-03-26T11:05:29.165Z,8.11
2024-03-26T11:08:07.661Z,8.13
2024-03-26T11:11:01.215Z,8.15
2024-03-26T11:13:36.501Z,8.16
2024-03-26T11:16:10.958Z,8.14
2024-03-26T11:18:46.079Z,8.05
2024-03-26T11:21:20.697Z,8.06
2024-03-26T11:23:57.995Z,8.09
2024-03-26T11:26:31.271Z,8.15
2024-03-26T11:29:10.785Z,8.14
2024-03-26T11:31:46.400Z,8.17
2024-03-26T11:34:22.636Z,8.17
2024-03-26T11:36:58.955Z,8.22
2024-03-26T11:39:34.950Z,8.25
2024-03-26T11:42:08.228Z,8.29
2024-03-26T11:44:41.159Z,8.36
2024-03-26T11:47:15.734Z,8.44
2024-03-26T11:49:51.234Z,8.50
2024-03-26T11:52:27.265Z,8.56
2024-03-26T11:55:02.938Z,8.63
2024-03-26T11:57:39.418Z,8.70
2024-03-26T12:00:18.844Z,8.74
2024-03-26T12:02:53.378Z,8.81
2024-03-26T12:05:26.920Z,8.87
2024-03-26T12:08:02.346Z,8.91
2024-03-26T12:10:36.241Z,8.95
2024-03-26T12:13:10.261Z,9.02
2024-03-26T12:15:45.354Z,9.08
2024-03-26T12:18:20.591Z,9.14
2024-03-26T12:21:00.595Z,9.20
2024-03-26T12:23:34.770Z,9.26
2024-03-26T12:26:10.123Z,9.31
2024-03-26T12:28:44.832Z,9.36
2024-03-26T12:31:19.546Z,9.39
2024-03-26T12:34:00.347Z,9.45
2024-03-26T12:36:34.179Z,9.49
2024-03-26T12:39:11.226Z,9.55
2024-03-26T12:41:44.078Z,9.63
2024-03-26T12:44:19.923Z,9.71
2024-03-26T12:46:56.580Z,9.80
2024-03-26T12:49:32.060Z,9.90
2024-03-26T12:52:06.090Z,9.98
2024-03-26T12:54:40.688Z,10.03
2024-03-26T12:57:15.372Z,10.08
2024-03-26T12:59:49.408Z,10.15
2024-03-26T13:02:24.074Z,10.20
2024-03-26T13:04:59.079Z,10.27
2024-03-26T13:07:33.351Z,10.33
2024-03-26T13:10:08.366Z,10.39
2024-03-26T13:12:43.899Z,10.45
2024-03-26T13:15:18.737Z,10.50
2024-03-26T13:17:52.813Z,10.55
2024-03-26T13:20:28.095Z,10.59
2024-03-26T13:23:01.690Z,10.63
2024-03-26T13:25:36.851Z,10.66
2024-03-26T13:28:11.171Z,10.68
2024-03-26T13:30:46.175Z,10.73
2024-03-26T13:33:18.639Z,10.75
2024-03-26T13:35:51.651Z,10.79
2024-03-26T13:38:25.344Z,10.82
2024-03-26T13:41:00.189Z,10.84
2024-03-26T13:43:34.787Z,10.85
2024-03-26T13:46:09.808Z,10.86
2024-03-26T13:48:43.302Z,10.87
2024-03-26T13:51:18.393Z,10.90
2024-03-26T13:53:50.111Z,10.92
2024-03-26T13:56:24.143Z,10.93
2024-03-26T13:58:57.293Z,10.94
2024-03-26T14:01:33.919Z,10.96
2024-03-26T14:04:08.529Z,10.98
2024-03-26T14:06:41.796Z,11.00
2024-03-26T14:09:15.057Z,11.04
2024-03-26T14:11:48.846Z,11.05
2024-03-26T14:14:23.861Z,11.07
2024-03-26T14:16:58.478Z,11.07
2024-03-26T14:19:32.682Z,11.08
2024-03-26T14:22:06.253Z,11.08
2024-03-26T14:24:41.797Z,11.07
2024-03-26T14:27:16.568Z,11.09
2024-03-26T14:29:50.387Z,11.12
2024-03-26T14:32:25.286Z,11.15
2024-03-26T14:35:00.379Z,11.15
2024-03-26T14:37:34.075Z,11.14
2024-03-26T14:40:11.479Z,11.15
2024-03-26T14:42:45.888Z,11.14
2024-03-26T14:45:19.218Z,11.16
2024-03-26T14:48:10.896Z,11.17
2024-03-26T14:50:53.055Z,11.16
2024-03-26T14:53:27.016Z,11.18
2024-03-26T14:56:02.407Z,11.19
2024-03-26T14:58:35.505Z,11.19
2024-03-26T15:01:10.836Z,11.20
2024-03-26T15:03:45.422Z,11.22
2024-03-26T15:06:20.278Z,11.21
2024-03-26T15:08:55.186Z,11.19
2024-03-26T15:11:29.541Z,11.18
2024-03-26T15:14:03.191Z,11.17
2024-03-26T15:16:36.883Z,11.17
2024-03-26T15:19:10.958Z,11.18
2024-03-26T15:21:45.403Z,11.18
2024-03-26T15:24:18.759Z,11.18
2024-03-26T15:27:11.365Z,11.17
2024-03-26T15:30:02.733Z,11.15
2024-03-26T15:32:35.758Z,11.13
2024-03-26T15:35:11.882Z,11.11
2024-03-26T15:37:45.883Z,11.11
2024-03-26T15:40:20.003Z,11.13
2024-03-26T15:42:55.687Z,11.14
2024-03-26T15:45:29.188Z,11.14
2024-03-26T15:48:04.692Z,11.15
2024-03-26T15:50:38.268Z,11.17
2024-03-26T15:53:15.012Z,11.18
2024-03-26T15:55:52.919Z,11.16
2024-03-26T15:58:29.871Z,11.15
2024-03-26T16:01:05.131Z,11.14
2024-03-26T16:03:54.153Z,11.14
2024-03-26T16:06:25.553Z,11.12
2024-03-26T16:08:58.004Z,11.12
2024-03-26T16:11:32.364Z,11.09
2024-03-26T16:14:05.695Z,11.08
2024-03-26T16:16:39.324Z,11.04
2024-03-26T16:19:14.571Z,10.99
2024-03-26T16:21:49.933Z,10.95
2024-03-26T16:24:26.406Z,10.91
2024-03-26T16:27:02.104Z,10.87
2024-03-26T16:29:36.673Z,10.84
2024-03-26T16:32:14.023Z,10.80
2024-03-26T16:34:54.707Z,10.76
2024-03-26T16:37:31.627Z,10.71
2024-03-26T16:40:08.222Z,10.66
2024-03-26T16:42:41.825Z,10.61
2024-03-26T16:45:15.878Z,10.58
2024-03-26T16:47:50.496Z,10.52
2024-03-26T16:50:26.791Z,10.47
2024-03-26T16:53:02.239Z,10.42
2024-03-26T16:55:35.564Z,10.38
2024-03-26T16:58:10.756Z,10.33
2024-03-26T17:00:49.415Z,10.28
2024-03-26T17:03:23.298Z,10.25
2024-03-26T17:05:57.467Z,10.20
2024-03-26T17:08:30.473Z,10.17
2024-03-26T17:11:05.174Z,10.13
2024-03-26T17:13:41.744Z,10.10
2024-03-26T17:16:17.368Z,10.07
2024-03-26T17:18:51.024Z,10.03
2024-03-26T17:21:25.629Z,10.00
2024-03-26T17:23:58.723Z,9.96
2024-03-26T17:26:37.259Z,9.93
2024-03-26T17:29:14.341Z,9.89
2024-03-26T17:31:50.338Z,9.84
2024-03-26T17:34:28.839Z,9.81
2024-03-26T17:37:12.797Z,9.77
2024-03-26T17:39:46.705Z,9.73
2024-03-26T17:42:19.990Z,9.70
2024-03-26T17:44:53.701Z,9.66
2024-03-26T17:47:26.605Z,9.64
2024-03-26T17:50:14.951Z,9.59
2024-03-26T17:52:48.494Z,9.56
2024-03-26T17:55:22.854Z,9.54
2024-03-26T17:57:57.745Z,9.50
2024-03-26T18:00:31.734Z,9.47
2024-03-26T18:03:04.583Z,9.44
2024-03-26T18:05:41.736Z,9.41
2024-03-26T18:08:15.420Z,9.39
2024-03-26T18:10:56.473Z,9.37
2024-03-26T18:13:30.900Z,9.35
2024-03-26T18:16:09.359Z,9.33
2024-03-26T18:18:41.947Z,9.31
2024-03-26T18:21:15.880Z,9.29
2024-03-26T18:23:48.210Z,9.28
2024-03-26T18:26:22.114Z,9.27
2024-03-26T18:29:00.156Z,9.24
2024-03-26T18:31:33.658Z,9.23
2024-03-26T18:34:08.187Z,9.22
2024-03-26T18:36:42.772Z,9.19
2024-03-26T18:39:14.534Z,9.16
2024-03-26T18:41:49.153Z,9.13
2024-03-26T18:44:23.880Z,9.11
2024-03-26T18:46:56.149Z,9.08
2024-03-26T18:49:28.553Z,9.07
2024-03-26T18:52:06.914Z,9.05
2024-03-26T18:54:44.582Z,9.03
2024-03-26T18:57:22.436Z,9.02
2024-03-26T19:00:01.180Z,9.00
2024-03-26T19:02:34.665Z,8.97
2024-03-26T19:05:29.152Z,8.96
2024-03-26T19:08:07.445Z,8.92
2024-03-26T19:10:44.227Z,8.90
2024-03-26T19:13:17.947Z,8.90
2024-03-26T19:15:55.928Z,8.88
2024-03-26T19:18:29.867Z,8.88
2024-03-26T19:21:04.783Z,8.87
2024-03-26T19:23:37.131Z,8.87
2024-03-26T19:26:12.379Z,8.86
2024-03-26T19:28:46.546Z,8.84
2024-03-26T19:31:23.532Z,8.84
2024-03-26T19:34:01.665Z,8.81
2024-03-26T19:36:35.022Z,8.81
2024-03-26T19:39:11.768Z,8.79
2024-03-26T19:41:46.680Z,8.78
2024-03-26T19:44:28.171Z,8.75
2024-03-26T19:47:06.556Z,8.74
2024-03-26T19:49:40.980Z,8.71
2024-03-26T19:52:15.762Z,8.71
2024-03-26T19:54:48.982Z,8.70
2024-03-26T19:57:22.594Z,8.70
2024-03-26T19:59:57.840Z,8.69
2024-03-26T20:02:32.954Z,8.68
2024-03-26T20:05:09.072Z,8.67
2024-03-26T20:07:43.242Z,8.67
2024-03-26T20:10:16.986Z,8.67
2024-03-26T20:12:50.156Z,8.66
2024-03-26T20:15:23.975Z,8.65
2024-03-26T20:17:57.243Z,8.64
2024-03-26T20:20:30.259Z,8.64
2024-03-26T20:23:03.973Z,8.64
2024-03-26T20:25:38.580Z,8.62
2024-03-26T20:28:13.838Z,8.61
2024-03-26T20:30:47.804Z,8.60
2024-03-26T20:33:24.580Z,8.59
2024-03-26T20:35:58.439Z,8.58
2024-03-26T20:38:32.824Z,8.57
2024-03-26T20:41:09.003Z,8.56
2024-03-26T20:43:44.795Z,8.55
2024-03-26T20:46:17.662Z,8.53
2024-03-26T20:48:51.157Z,8.54
2024-03-26T20:51:29.445Z,8.54
2024-03-26T20:54:02.366Z,8.54
2024-03-26T20:56:36.468Z,8.54
2024-03-26T20:59:10.505Z,8.53
2024-03-26T21:01:43.789Z,8.52
2024-03-26T21:04:16.496Z,8.52
2024-03-26T21:06:51.187Z,8.52
2024-03-26T21:09:25.041Z,8.52
2024-03-26T21:11:58.250Z,8.52
2024-03-26T21:14:30.540Z,8.51
2024-03-26T21:17:10.127Z,8.50
2024-03-26T21:19:47.271Z,8.50
2024-03-26T21:22:21.300Z,8.49
2024-03-26T21:25:13.801Z,8.48
2024-03-26T21:27:48.687Z,8.38
2024-03-26T21:30:24.933Z,8.40
2024-03-26T21:33:03.952Z,8.38
2024-03-26T21:35:43.428Z,8.40
2024-03-26T21:38:23.567Z,8.41
2024-03-26T21:41:15.956Z,8.42
2024-03-26T21:43:48.572Z,8.43
2024-03-26T21:46:21.210Z,8.44
2024-03-26T21:48:54.563Z,8.46
2024-03-26T21:51:29.663Z,8.47
2024-03-26T21:54:05.930Z,8.48
2024-03-26T21:56:45.971Z,8.48
2024-03-26T21:59:19.019Z,8.48
2024-03-26T22:01:51.684Z,8.48
2024-03-26T22:04:26.180Z,8.49
2024-03-26T22:07:00.013Z,8.51
2024-03-26T22:09:33.965Z,8.51
2024-03-26T22:12:07.708Z,8.51
2024-03-26T22:14:41.969Z,8.51
2024-03-26T22:17:15.088Z,8.51
2024-03-26T22:19:53.954Z,8.52
2024-03-26T22:22:27.768Z,8.51
2024-03-26T22:25:03.706Z,8.50
2024-03-26T22:27:37.957Z,8.50
2024-03-26T22:30:16.813Z,8.49
2024-03-26T22:32:52.187Z,8.48
2024-03-26T22:35:25.481Z,8.47
2024-03-26T22:38:01.162Z,8.47
2024-03-26T22:40:37.907Z,8.45
2024-03-26T22:43:11.692Z,8.43
2024-03-26T22:45:45.485Z,8.43
2024-03-26T22:48:19.682Z,8.43
2024-03-26T22:50:53.519Z,8.42
2024-03-26T22:53:26.793Z,8.40
2024-03-26T22:56:03.494Z,8.38
2024-03-26T22:58:38.843Z,8.37
2024-03-26T23:01:20.060Z,8.36
2024-03-26T23:03:52.964Z,8.35
2024-03-26T23:06:28.159Z,8.33
2024-03-26T23:09:02.666Z,8.31
2024-03-26T23:11:36.650Z,8.29
2024-03-26T23:14:10.740Z,8.27
2024-03-26T23:16:45.403Z,8.26
2024-03-26T23:19:19.236Z,8.26
2024-03-26T23:21:51.240Z,8.24
2024-03-26T23:24:24.899Z,8.23
2024-03-26T23:26:58.340Z,8.21
2024-03-26T23:29:30.817Z,8.19
2024-03-26T23:32:05.090Z,8.18
2024-03-26T23:34:38.873Z,8.16
2024-03-26T23:37:13.540Z,8.15
2024-03-26T23:39:46.465Z,8.13
2024-03-26T23:42:20.917Z,8.13
2024-03-26T23:44:56.069Z,8.10
2024-03-26T23:47:29.332Z,8.09
2024-03-26T23:50:04.062Z,8.08
2024-03-26T23:52:39.178Z,8.06
2024-03-26T23:55:13.011Z,8.04
2024-03-26T23:57:47.393Z,8.02
